sensor_id;sensor_type;location;lat;lon;timestamp;pressure;altitude;pressure_sealevel;temperature
49557;BMP280;35462;45.048;7.666;2023-12-07T00:05:05;98906.34;;;6.03
49557;BMP280;35462;45.048;7.666;2023-12-07T00:20:24;98901.81;;;6.03
49557;BMP280;35462;45.048;7.666;2023-12-07T00:35:44;98916.31;;;5.87
49557;BMP280;35462;45.048;7.666;2023-12-07T00:51:03;98925.22;;;5.79
49557;BMP280;35462;45.048;7.666;2023-12-07T01:06:25;98920.31;;;5.74
49557;BMP280;35462;45.048;7.666;2023-12-07T01:21:44;98924.38;;;5.68
49557;BMP280;35462;45.048;7.666;2023-12-07T01:37:04;98940.75;;;5.54
49557;BMP280;35462;45.048;7.666;2023-12-07T01:52:27;98939.06;;;5.39
49557;BMP280;35462;45.048;7.666;2023-12-07T02:07:48;98957.91;;;5.19
49557;BMP280;35462;45.048;7.666;2023-12-07T02:23:08;98951.41;;;5.09
49557;BMP280;35462;45.048;7.666;2023-12-07T02:38:28;98956.44;;;4.92
49557;BMP280;35462;45.048;7.666;2023-12-07T02:53:48;98962.31;;;4.86
49557;BMP280;35462;45.048;7.666;2023-12-07T03:09:09;98961.03;;;4.76
49557;BMP280;35462;45.048;7.666;2023-12-07T03:24:29;98966.19;;;4.69
49557;BMP280;35462;45.048;7.666;2023-12-07T03:39:48;98972.13;;;4.66
49557;BMP280;35462;45.048;7.666;2023-12-07T03:55:08;98971.69;;;4.61
49557;BMP280;35462;45.048;7.666;2023-12-07T04:10:27;98965.28;;;4.58
49557;BMP280;35462;45.048;7.666;2023-12-07T04:25:47;98968.53;;;4.52
49557;BMP280;35462;45.048;7.666;2023-12-07T04:41:07;98974.97;;;4.35
49557;BMP280;35462;45.048;7.666;2023-12-07T04:56:27;99005.25;;;4.10
49557;BMP280;35462;45.048;7.666;2023-12-07T05:11:46;98990.84;;;4.01
49557;BMP280;35462;45.048;7.666;2023-12-07T05:27:05;98996.59;;;3.87
49557;BMP280;35462;45.048;7.666;2023-12-07T05:42:25;99011.91;;;3.85
49557;BMP280;35462;45.048;7.666;2023-12-07T05:57:47;99015.16;;;3.82
49557;BMP280;35462;45.048;7.666;2023-12-07T06:13:07;99058.53;;;3.80
49557;BMP280;35462;45.048;7.666;2023-12-07T06:28:26;99048.66;;;3.73
49557;BMP280;35462;45.048;7.666;2023-12-07T06:43:46;99077.03;;;3.71
49557;BMP280;35462;45.048;7.666;2023-12-07T06:59:05;99091.38;;;3.77
49557;BMP280;35462;45.048;7.666;2023-12-07T07:14:25;99103.47;;;3.82
49557;BMP280;35462;45.048;7.666;2023-12-07T07:29:45;99118.16;;;3.86
49557;BMP280;35462;45.048;7.666;2023-12-07T07:45:06;99150.00;;;4.07
49557;BMP280;35462;45.048;7.666;2023-12-07T08:00:26;99176.28;;;4.30
49557;BMP280;35462;45.048;7.666;2023-12-07T08:15:47;99209.00;;;4.55
49557;BMP280;35462;45.048;7.666;2023-12-07T08:31:06;99224.50;;;5.01
49557;BMP280;35462;45.048;7.666;2023-12-07T08:46:26;99212.25;;;5.50
49557;BMP280;35462;45.048;7.666;2023-12-07T09:01:45;99205.13;;;5.99
49557;BMP280;35462;45.048;7.666;2023-12-07T09:17:05;99213.97;;;6.42
49557;BMP280;35462;45.048;7.666;2023-12-07T09:32:25;99205.75;;;6.84
49557;BMP280;35462;45.048;7.666;2023-12-07T09:47:52;99195.00;;;7.39
49557;BMP280;35462;45.048;7.666;2023-12-07T10:03:21;99200.81;;;7.65
49557;BMP280;35462;45.048;7.666;2023-12-07T10:18:41;99208.97;;;8.07
49557;BMP280;35462;45.048;7.666;2023-12-07T10:34:01;99199.69;;;8.34
49557;BMP280;35462;45.048;7.666;2023-12-07T10:49:21;99200.13;;;8.60
49557;BMP280;35462;45.048;7.666;2023-12-07T11:04:43;99172.63;;;8.75
49557;BMP280;35462;45.048;7.666;2023-12-07T11:20:04;99144.00;;;9.12
49557;BMP280;35462;45.048;7.666;2023-12-07T11:35:24;99131.03;;;9.73
49557;BMP280;35462;45.048;7.666;2023-12-07T11:50:58;99126.81;;;9.90
49557;BMP280;35462;45.048;7.666;2023-12-07T12:06:17;99114.66;;;9.96
49557;BMP280;35462;45.048;7.666;2023-12-07T12:21:37;99096.75;;;10.28
49557;BMP280;35462;45.048;7.666;2023-12-07T12:36:59;99113.25;;;10.46
49557;BMP280;35462;45.048;7.666;2023-12-07T12:52:19;99102.28;;;10.47
49557;BMP280;35462;45.048;7.666;2023-12-07T13:07:39;99089.06;;;10.44
49557;BMP280;35462;45.048;7.666;2023-12-07T13:22:58;99081.81;;;10.55
49557;BMP280;35462;45.048;7.666;2023-12-07T13:38:18;99079.69;;;10.79
49557;BMP280;35462;45.048;7.666;2023-12-07T13:53:39;99076.47;;;10.98
49557;BMP280;35462;45.048;7.666;2023-12-07T14:08:58;99079.78;;;10.66
49557;BMP280;35462;45.048;7.666;2023-12-07T14:24:18;99078.88;;;10.39
49557;BMP280;35462;45.048;7.666;2023-12-07T14:39:41;99082.03;;;10.20
49557;BMP280;35462;45.048;7.666;2023-12-07T14:55:00;99103.28;;;10.06
49557;BMP280;35462;45.048;7.666;2023-12-07T15:10:23;99117.72;;;9.84
49557;BMP280;35462;45.048;7.666;2023-12-07T15:25:42;99132.91;;;9.69
49557;BMP280;35462;45.048;7.666;2023-12-07T15:41:02;99123.16;;;9.49
49557;BMP280;35462;45.048;7.666;2023-12-07T15:56:21;99135.28;;;9.36
49557;BMP280;35462;45.048;7.666;2023-12-07T16:11:41;99156.78;;;9.17
49557;BMP280;35462;45.048;7.666;2023-12-07T16:27:01;99173.78;;;9.02
49557;BMP280;35462;45.048;7.666;2023-12-07T16:42:20;99196.03;;;8.87
49557;BMP280;35462;45.048;7.666;2023-12-07T16:57:40;99192.25;;;8.88
49557;BMP280;35462;45.048;7.666;2023-12-07T17:12:59;99202.41;;;8.76
49557;BMP280;35462;45.048;7.666;2023-12-07T17:28:20;99195.63;;;8.71
49557;BMP280;35462;45.048;7.666;2023-12-07T17:43:39;99206.91;;;8.55
49557;BMP280;35462;45.048;7.666;2023-12-07T17:58:59;99210.31;;;8.55
49557;BMP280;35462;45.048;7.666;2023-12-07T18:14:18;99225.72;;;8.43
49557;BMP280;35462;45.048;7.666;2023-12-07T18:29:38;99215.56;;;8.55
49557;BMP280;35462;45.048;7.666;2023-12-07T18:44:58;99229.16;;;8.60
49557;BMP280;35462;45.048;7.666;2023-12-07T19:00:18;99227.69;;;8.73
49557;BMP280;35462;45.048;7.666;2023-12-07T19:15:37;99214.09;;;8.78
49557;BMP280;35462;45.048;7.666;2023-12-07T19:30:56;99223.16;;;8.77
49557;BMP280;35462;45.048;7.666;2023-12-07T19:46:17;99224.34;;;8.83
49557;BMP280;35462;45.048;7.666;2023-12-07T20:01:36;99221.66;;;8.66
49557;BMP280;35462;45.048;7.666;2023-12-07T20:16:56;99219.78;;;8.73
49557;BMP280;35462;45.048;7.666;2023-12-07T20:32:15;99222.03;;;8.78
49557;BMP280;35462;45.048;7.666;2023-12-07T20:47:35;99216.34;;;8.62
49557;BMP280;35462;45.048;7.666;2023-12-07T21:02:54;99223.53;;;8.72
49557;BMP280;35462;45.048;7.666;2023-12-07T21:18:14;99205.03;;;8.62
49557;BMP280;35462;45.048;7.666;2023-12-07T21:33:33;99216.72;;;8.54
49557;BMP280;35462;45.048;7.666;2023-12-07T21:48:54;99203.16;;;8.66
49557;BMP280;35462;45.048;7.666;2023-12-07T22:04:14;99225.72;;;8.43
49557;BMP280;35462;45.048;7.666;2023-12-07T22:19:34;99177.81;;;8.37
49557;BMP280;35462;45.048;7.666;2023-12-07T22:34:53;99178.88;;;8.15
49557;BMP280;35462;45.048;7.666;2023-12-07T22:50:13;99212.00;;;8.09
49557;BMP280;35462;45.048;7.666;2023-12-07T23:05:32;99182.59;;;8.04
49557;BMP280;35462;45.048;7.666;2023-12-07T23:20:51;99155.50;;;8.10
49557;BMP280;35462;45.048;7.666;2023-12-07T23:36:11;99142.66;;;8.02
49557;BMP280;35462;45.048;7.666;2023-12-07T23:51:31;99105.72;;;7.95
